Time;durP1;ratioP1;P1;durP2;ratioP2;P2;SDS_P1;SDS_P2;PMS_P1;PMS_P2;Temp;Humidity;BMP_temperature;BMP_pressure;BME280_temperature;BME280_humidity;BME280_pressure;Samples;Min_cycle;Max_cycle;Signal;HPM_P1;HPM_P2
2023/03/26 00:01:00;;;;;;;0.80;0.75;;;;;;;;;;4974450;28;20207;-67
2023/03/26 00:03:28;;;;;;;0.68;0.68;;;;;;;;;;4974481;28;20205;-65
2023/03/26 00:06:02;;;;;;;2.15;1.00;;;;;;;;;;4974074;28;20627;-66
2023/03/26 00:08:29;;;;;;;1.08;1.00;;;;;;;;;;4976937;28;20192;-66
2023/03/26 00:10:56;;;;;;;2.13;1.98;;;;;;;;;;4979054;28;20215;-66
2023/03/26 00:13:23;;;;;;;6.05;4.15;;;;;;;;;;4977885;28;20667;-65
2023/03/26 00:15:51;;;;;;;13.13;9.18;;;;;;;;;;4978042;28;20234;-65
2023/03/26 00:18:20;;;;;;;7.07;6.07;;;;;;;;;;4978151;28;20235;-66
2023/03/26 00:20:47;;;;;;;6.95;5.35;;;;;;;;;;4977836;28;20223;-66
2023/03/26 00:23:14;;;;;;;4.55;4.07;;;;;;;;;;4978016;28;20269;-66
2023/03/26 00:25:42;;;;;;;4.07;3.67;;;;;;;;;;4977915;28;20294;-66
2023/03/26 00:28:10;;;;;;;3.95;3.55;;;;;;;;;;4977925;28;20207;-66
2023/03/26 00:30:40;;;;;;;3.38;2.95;;;;;;;;;;4977956;28;20208;-66
2023/03/26 07:29:44;;;;;;;2.55;2.13;;;;;;;;;;5425681;23;20235;-63
2023/03/26 07:32:16;;;;;;;2.20;1.80;;;;;;;;;;4974637;28;20674;-63
2023/03/26 07:34:53;;;;;;;2.25;2.15;;;;;;;;;;4975030;28;20183;-63
2023/03/26 07:37:25;;;;;;;5.43;2.05;;;;;;;;;;4974934;28;20215;-63
2023/03/26 07:39:56;;;;;;;2.05;1.92;;;;;;;;;;4974540;28;20231;-63
2023/03/26 07:42:30;;;;;;;5.57;2.90;;;;;;;;;;4975439;28;20309;-63
2023/03/26 07:45:03;;;;;;;2.58;2.28;;;;;;;;;;4975149;28;20183;-63
2023/03/26 07:47:31;;;;;;;2.83;2.10;;;;;;;;;;4977246;28;20183;-62
2023/03/26 07:49:59;;;;;;;2.88;2.08;;;;;;;;;;4979318;28;20318;-63
2023/03/26 07:52:27;;;;;;;4.05;2.20;;;;;;;;;;4978967;28;20235;-63
2023/03/26 07:54:55;;;;;;;2.85;2.65;;;;;;;;;;4978807;28;20553;-63
2023/03/26 07:57:28;;;;;;;3.17;1.98;;;;;;;;;;4975623;28;20310;-65
2023/03/26 07:59:58;;;;;;;4.20;2.30;;;;;;;;;;4974678;28;20223;-64
2023/03/26 08:02:33;;;;;;;3.80;2.47;;;;;;;;;;4974404;28;20214;-64
2023/03/26 08:05:17;;;;;;;3.47;1.98;;;;;;;;;;4974716;28;20194;-64
2023/03/26 08:07:51;;;;;;;2.63;1.85;;;;;;;;;;4974732;28;20180;-64
2023/03/26 08:10:22;;;;;;;3.58;2.20;;;;;;;;;;4974618;28;20250;-64
2023/03/26 08:12:53;;;;;;;3.55;2.25;;;;;;;;;;4974516;28;20183;-64
2023/03/26 08:15:24;;;;;;;3.67;1.95;;;;;;;;;;4974501;28;20191;-64
2023/03/26 08:17:54;;;;;;;3.67;2.17;;;;;;;;;;4974487;28;20247;-64
2023/03/26 08:20:30;;;;;;;1.58;1.48;;;;;;;;;;4974145;28;20651;-64
2023/03/26 08:23:02;;;;;;;4.20;1.70;;;;;;;;;;4974435;28;20222;-64
2023/03/26 08:25:32;;;;;;;3.90;1.90;;;;;;;;;;4974836;28;20290;-64
2023/03/26 08:28:06;;;;;;;3.15;1.88;;;;;;;;;;4974438;28;20219;-64
2023/03/26 08:30:33;;;;;;;1.70;1.60;;;;;;;;;;4977827;28;20710;-64
2023/03/26 08:33:05;;;;;;;4.75;1.63;;;;;;;;;;4977859;28;20211;-64
2023/03/26 08:35:33;;;;;;;2.78;1.60;;;;;;;;;;4978088;28;20195;-64
2023/03/26 08:38:00;;;;;;;2.65;1.60;;;;;;;;;;4977861;28;20246;-64
2023/03/26 08:40:38;;;;;;;2.42;1.58;;;;;;;;;;4977796;28;20223;-64
2023/03/26 08:43:17;;;;;;;1.95;1.58;;;;;;;;;;4977895;28;20187;-64
2023/03/26 08:45:55;;;;;;;1.23;1.10;;;;;;;;;;4977780;28;20187;-64
2023/03/26 08:48:39;;;;;;;2.42;1.15;;;;;;;;;;4978557;28;20191;-64
2023/03/26 08:51:34;;;;;;;1.25;1.15;;;;;;;;;;4977618;28;20655;-65
2023/03/26 08:54:35;;;;;;;2.97;1.25;;;;;;;;;;4977491;28;20648;-65
2023/03/26 08:57:07;;;;;;;1.33;1.33;;;;;;;;;;4977561;28;20218;-65
2023/03/26 08:59:57;;;;;;;2.20;1.50;;;;;;;;;;4977447;28;20223;-64
2023/03/26 09:02:33;;;;;;;2.45;1.77;;;;;;;;;;4977600;28;20195;-64
2023/03/26 09:05:19;;;;;;;1.60;1.58;;;;;;;;;;4977441;28;20188;-64
2023/03/26 09:08:05;;;;;;;1.67;1.30;;;;;;;;;;4977591;28;20191;-63
2023/03/26 09:10:51;;;;;;;1.38;1.30;;;;;;;;;;4977233;28;20699;-63
2023/03/26 09:13:39;;;;;;;2.65;1.30;;;;;;;;;;4977368;28;20187;-62
2023/03/26 09:16:18;;;;;;;1.30;1.20;;;;;;;;;;4977138;28;20195;-62
2023/03/26 09:18:52;;;;;;;2.40;1.90;;;;;;;;;;4977066;28;20227;-63
2023/03/26 09:21:37;;;;;;;1.85;1.75;;;;;;;;;;4977196;28;20225;-63
2023/03/26 09:24:24;;;;;;;1.95;1.85;;;;;;;;;;4977110;28;20192;-63
2023/03/26 09:26:59;;;;;;;2.20;2.03;;;;;;;;;;4977056;28;20184;-62
2023/03/26 09:29:50;;;;;;;1.55;1.33;;;;;;;;;;4976922;28;20582;-62
2023/03/26 09:32:36;;;;;;;1.75;1.63;;;;;;;;;;4976707;28;20215;-62
2023/03/26 09:35:10;;;;;;;1.77;1.67;;;;;;;;;;4976945;28;20654;-62
2023/03/26 09:37:42;;;;;;;3.65;1.88;;;;;;;;;;4976915;28;20322;-63
2023/03/26 09:40:16;;;;;;;2.10;2.00;;;;;;;;;;4976384;28;20223;-62
2023/03/26 09:42:44;;;;;;;2.80;1.80;;;;;;;;;;4977383;28;20282;-62
2023/03/26 09:45:19;;;;;;;3.92;2.08;;;;;;;;;;4977051;28;20194;-63
2023/03/26 09:48:07;;;;;;;2.10;1.58;;;;;;;;;;4976772;28;20191;-63
2023/03/26 09:51:07;;;;;;;1.55;1.45;;;;;;;;;;4976546;28;20229;-63
2023/03/26 09:53:47;;;;;;;4.65;3.80;;;;;;;;;;4879155;29;20678;-63
2023/03/26 09:56:22;;;;;;;1.60;1.50;;;;;;;;;;4879051;29;20187;-64
2023/03/26 09:58:59;;;;;;;1.60;1.50;;;;;;;;;;4936457;28;20226;-65
2023/03/26 10:01:31;;;;;;;1.63;1.33;;;;;;;;;;4976046;28;20673;-62
2023/03/26 10:04:02;;;;;;;2.10;1.30;;;;;;;;;;4976376;28;20219;-62
2023/03/26 10:06:36;;;;;;;2.00;0.90;;;;;;;;;;4976111;28;20650;-62
2023/03/26 10:09:24;;;;;;;0.85;0.85;;;;;;;;;;4976221;28;20251;-66
2023/03/26 10:11:59;;;;;;;1.38;0.90;;;;;;;;;;4968814;28;20290;-64
2023/03/26 10:14:28;;;;;;;2.38;0.90;;;;;;;;;;4976111;28;20285;-64
2023/03/26 10:17:01;;;;;;;2.08;0.80;;;;;;;;;;4975994;28;20223;-64
2023/03/26 10:19:48;;;;;;;0.88;0.73;;;;;;;;;;4975464;28;20226;-64
2023/03/26 10:22:21;;;;;;;1.10;0.70;;;;;;;;;;4976005;28;20195;-64
2023/03/26 10:24:57;;;;;;;1.58;0.70;;;;;;;;;;4976106;28;20191;-63
2023/03/26 10:27:31;;;;;;;1.92;0.70;;;;;;;;;;4975951;28;20186;-63
2023/03/26 10:30:20;;;;;;;0.73;0.73;;;;;;;;;;4975918;28;20250;-63
2023/03/26 10:32:52;;;;;;;1.30;0.95;;;;;;;;;;4975693;28;20207;-63
2023/03/26 10:35:21;;;;;;;3.25;1.20;;;;;;;;;;4975834;28;20191;-63
2023/03/26 10:37:55;;;;;;;1.67;0.93;;;;;;;;;;4975347;28;20230;-63
2023/03/26 10:40:28;;;;;;;0.60;0.60;;;;;;;;;;4975671;28;20230;-64
2023/03/26 10:43:15;;;;;;;1.27;0.70;;;;;;;;;;4975633;28;20210;-64
2023/03/26 13:39:48;;;;;;;0.50;0.50;;;;;;;;;;5201653;23;20321;-66
2023/03/26 13:42:35;;;;;;;1.63;0.77;;;;;;;;;;4976672;28;20232;-66
2023/03/26 13:45:05;;;;;;;3.40;0.50;;;;;;;;;;4976768;28;20196;-66
2023/03/26 13:47:34;;;;;;;0.82;0.60;;;;;;;;;;4976766;28;20239;-65
2023/03/26 13:50:03;;;;;;;1.98;0.73;;;;;;;;;;4976598;28;20223;-65
2023/03/26 13:52:35;;;;;;;1.50;0.68;;;;;;;;;;4977192;28;20254;-66
2023/03/26 13:55:19;;;;;;;1.10;0.60;;;;;;;;;;4976655;28;20195;-67
2023/03/26 13:57:49;;;;;;;2.25;0.50;;;;;;;;;;4976542;28;20214;-67
2023/03/26 14:00:20;;;;;;;1.02;0.70;;;;;;;;;;4976522;28;20226;-66
2023/03/26 14:02:49;;;;;;;1.75;0.80;;;;;;;;;;4976771;28;20192;-66
2023/03/26 14:05:20;;;;;;;0.93;0.60;;;;;;;;;;4976699;28;20210;-67
2023/03/26 14:07:49;;;;;;;2.88;0.63;;;;;;;;;;4976030;28;20199;-65
2023/03/26 14:10:19;;;;;;;0.80;0.50;;;;;;;;;;4976480;28;20199;-66
2023/03/26 14:12:50;;;;;;;1.92;0.52;;;;;;;;;;4976651;28;20547;-65
2023/03/26 14:15:20;;;;;;;1.75;0.80;;;;;;;;;;4976893;28;20194;-65
2023/03/26 14:17:49;;;;;;;0.50;0.50;;;;;;;;;;4976180;28;20210;-65
2023/03/26 14:20:44;;;;;;;1.55;0.60;;;;;;;;;;4976056;28;20204;-65
2023/03/26 14:23:17;;;;;;;2.42;0.30;;;;;;;;;;4976168;28;20191;-66
2023/03/26 14:25:57;;;;;;;6.32;0.65;;;;;;;;;;4975948;28;20191;-66
2023/03/26 14:28:50;;;;;;;1.05;0.47;;;;;;;;;;4975913;28;20226;-65
2023/03/26 14:31:22;;;;;;;0.85;0.50;;;;;;;;;;4975915;28;20388;-65
2023/03/26 14:33:53;;;;;;;0.60;0.52;;;;;;;;;;4975985;28;20216;-65
2023/03/26 14:36:27;;;;;;;3.33;0.43;;;;;;;;;;4975856;28;20191;-66
2023/03/26 14:39:01;;;;;;;0.50;0.50;;;;;;;;;;4975421;28;20234;-66
2023/03/26 14:41:30;;;;;;;1.77;0.55;;;;;;;;;;4975567;28;20214;-67
2023/03/26 14:44:11;;;;;;;0.70;0.65;;;;;;;;;;4975568;28;20638;-67
2023/03/26 14:46:49;;;;;;;2.22;0.60;;;;;;;;;;4975965;28;20199;-66
2023/03/26 14:49:30;;;;;;;1.55;0.70;;;;;;;;;;4975794;28;20293;-66
2023/03/26 14:52:10;;;;;;;0.40;0.40;;;;;;;;;;4976098;28;20215;-66
2023/03/26 14:54:39;;;;;;;1.77;0.70;;;;;;;;;;4975309;28;20577;-66
2023/03/26 14:57:21;;;;;;;2.83;0.55;;;;;;;;;;4975433;28;20677;-65
2023/03/26 15:00:05;;;;;;;2.83;1.85;;;;;;;;;;4975592;28;20227;-65
2023/03/26 15:02:50;;;;;;;1.55;0.63;;;;;;;;;;4975669;28;20194;-65
2023/03/26 15:05:38;;;;;;;3.85;0.80;;;;;;;;;;4975744;28;20378;-65
2023/03/26 15:08:19;;;;;;;0.98;0.70;;;;;;;;;;4975527;28;20219;-65
2023/03/26 15:10:54;;;;;;;0.70;0.70;;;;;;;;;;4975480;28;20205;-66
2023/03/26 15:13:36;;;;;;;0.90;0.80;;;;;;;;;;4975203;28;20654;-66
2023/03/26 15:16:17;;;;;;;0.52;0.30;;;;;;;;;;4971545;28;20214;-65
2023/03/26 15:19:08;;;;;;;0.47;0.47;;;;;;;;;;4975190;28;20230;-66
2023/03/26 15:21:49;;;;;;;1.52;0.77;;;;;;;;;;4975561;28;20203;-65
2023/03/26 15:24:35;;;;;;;0.65;0.65;;;;;;;;;;4975095;28;20644;-66
2023/03/26 15:27:17;;;;;;;0.55;0.40;;;;;;;;;;4975127;28;20203;-65
2023/03/26 15:30:01;;;;;;;0.30;0.30;;;;;;;;;;4975226;28;20234;-66
2023/03/26 15:32:42;;;;;;;0.40;0.40;;;;;;;;;;4975043;28;20187;-66
2023/03/26 15:35:20;;;;;;;1.67;0.38;;;;;;;;;;4974939;28;20214;-65
2023/03/26 15:38:08;;;;;;;0.30;0.30;;;;;;;;;;4974538;28;20207;-66
2023/03/26 15:40:39;;;;;;;0.32;0.30;;;;;;;;;;4975088;28;20218;-65
2023/03/26 15:43:10;;;;;;;0.63;0.40;;;;;;;;;;4974841;28;20553;-65
2023/03/26 15:45:37;;;;;;;0.43;0.22;;;;;;;;;;4978135;28;20639;-65
2023/03/26 15:48:17;;;;;;;0.43;0.43;;;;;;;;;;4977312;28;20681;-65
2023/03/26 15:50:48;;;;;;;0.30;0.30;;;;;;;;;;4976981;28;20195;-66
2023/03/26 15:53:23;;;;;;;0.43;0.43;;;;;;;;;;4974933;28;20187;-66
2023/03/26 15:56:00;;;;;;;0.30;0.30;;;;;;;;;;4975149;28;20191;-66
2023/03/26 15:58:29;;;;;;;0.30;0.30;;;;;;;;;;4974772;28;20571;-66
2023/03/26 16:01:04;;;;;;;0.30;0.30;;;;;;;;;;4974871;28;20222;-66
2023/03/26 16:03:40;;;;;;;0.30;0.30;;;;;;;;;;4975405;28;20191;-70
2023/03/26 16:06:29;;;;;;;0.40;0.40;;;;;;;;;;4975486;28;20191;-75
2023/03/26 16:09:03;;;;;;;0.52;0.30;;;;;;;;;;4975340;28;20278;-76
2023/03/26 16:11:43;;;;;;;0.57;0.40;;;;;;;;;;4974593;28;20687;-66
2023/03/26 16:14:17;;;;;;;1.48;1.40;;;;;;;;;;4974309;28;20187;-69
2023/03/26 16:16:50;;;;;;;2.75;2.00;;;;;;;;;;4974757;28;20221;-66
2023/03/26 16:19:39;;;;;;;1.08;1.05;;;;;;;;;;4974609;28;20258;-66
2023/03/26 16:22:08;;;;;;;0.75;0.75;;;;;;;;;;4974650;28;20187;-66
2023/03/26 16:24:36;;;;;;;0.43;0.35;;;;;;;;;;4974718;28;20207;-67
2023/03/26 16:27:07;;;;;;;0.60;0.60;;;;;;;;;;4974287;28;20682;-67
2023/03/26 16:29:34;;;;;;;0.40;0.40;;;;;;;;;;4974620;28;20627;-67
2023/03/26 16:32:15;;;;;;;0.30;0.30;;;;;;;;;;4974700;28;20210;-67
2023/03/26 16:34:46;;;;;;;0.40;0.40;;;;;;;;;;4974371;28;20674;-66
2023/03/26 16:37:32;;;;;;;0.50;0.50;;;;;;;;;;4974590;28;20209;-67
2023/03/26 16:40:27;;;;;;;0.32;0.32;;;;;;;;;;4974470;28;20289;-66
2023/03/26 16:42:55;;;;;;;0.25;0.25;;;;;;;;;;4974713;28;20187;-66
2023/03/26 16:45:25;;;;;;;0.40;0.40;;;;;;;;;;4974476;28;20207;-67
2023/03/26 16:47:59;;;;;;;0.32;0.32;;;;;;;;;;4974213;28;20207;-66
2023/03/26 16:50:33;;;;;;;0.40;0.40;;;;;;;;;;4976653;28;20214;-66
2023/03/26 16:53:05;;;;;;;0.73;0.73;;;;;;;;;;4977852;28;20187;-67
2023/03/26 16:55:36;;;;;;;0.30;0.30;;;;;;;;;;4977839;28;20191;-67
2023/03/26 16:58:04;;;;;;;0.40;0.40;;;;;;;;;;4977748;28;20218;-67
2023/03/26 17:00:42;;;;;;;0.40;0.40;;;;;;;;;;4977437;28;20670;-67
2023/03/26 17:03:32;;;;;;;2.17;0.43;;;;;;;;;;4977721;28;20191;-67
2023/03/26 17:06:05;;;;;;;0.40;0.40;;;;;;;;;;4971221;28;20296;-66
2023/03/26 17:08:35;;;;;;;1.38;0.47;;;;;;;;;;4977566;28;20230;-66
2023/03/26 17:11:07;;;;;;;0.30;0.30;;;;;;;;;;4977306;28;20199;-66
2023/03/26 17:13:41;;;;;;;0.40;0.40;;;;;;;;;;4977571;28;20214;-66
2023/03/26 17:16:13;;;;;;;0.80;0.80;;;;;;;;;;4977531;28;20294;-68
2023/03/26 17:18:44;;;;;;;0.68;0.68;;;;;;;;;;4976912;28;20641;-66
2023/03/26 17:21:16;;;;;;;0.65;0.40;;;;;;;;;;4977236;28;20187;-67
2023/03/26 17:23:59;;;;;;;0.32;0.32;;;;;;;;;;4977135;28;20631;-66
2023/03/26 17:26:30;;;;;;;0.40;0.40;;;;;;;;;;4977309;28;20195;-66
2023/03/26 17:29:03;;;;;;;0.50;0.50;;;;;;;;;;4977228;28;20222;-67
2023/03/26 17:31:35;;;;;;;0.50;0.50;;;;;;;;;;4977145;28;20207;-67
2023/03/26 17:34:23;;;;;;;0.40;0.40;;;;;;;;;;4976842;28;20673;-67
2023/03/26 17:36:58;;;;;;;0.45;0.40;;;;;;;;;;4976228;28;20291;-66
2023/03/26 17:39:45;;;;;;;2.08;0.50;;;;;;;;;;4976974;28;20227;-66
2023/03/26 17:42:17;;;;;;;2.58;0.60;;;;;;;;;;4976774;28;20234;-66
2023/03/26 17:44:46;;;;;;;0.35;0.35;;;;;;;;;;4977256;28;20215;-66
2023/03/26 17:47:28;;;;;;;0.30;0.30;;;;;;;;;;4976659;28;20689;-66
2023/03/26 17:49:56;;;;;;;1.27;0.40;;;;;;;;;;4974311;28;20222;-66
2023/03/26 17:52:26;;;;;;;0.50;0.50;;;;;;;;;;4976798;28;20203;-67
2023/03/26 17:54:56;;;;;;;0.43;0.43;;;;;;;;;;4976600;28;20214;-66
2023/03/26 17:57:26;;;;;;;0.75;0.75;;;;;;;;;;4976296;28;20195;-66
2023/03/26 17:59:56;;;;;;;0.60;0.60;;;;;;;;;;4976390;28;20250;-65
2023/03/26 18:02:31;;;;;;;0.55;0.55;;;;;;;;;;4975463;28;20694;-66
2023/03/26 18:04:58;;;;;;;0.95;0.57;;;;;;;;;;4976356;28;20188;-66
2023/03/26 18:07:44;;;;;;;0.50;0.50;;;;;;;;;;4976365;28;20210;-66
2023/03/26 18:10:17;;;;;;;0.90;0.50;;;;;;;;;;4976406;28;20202;-66
2023/03/26 18:12:51;;;;;;;0.50;0.50;;;;;;;;;;4976283;28;20226;-66
2023/03/26 18:15:27;;;;;;;0.50;0.50;;;;;;;;;;4976332;28;20195;-66
2023/03/26 18:17:57;;;;;;;0.50;0.50;;;;;;;;;;4976283;28;20187;-67
2023/03/26 18:20:25;;;;;;;0.43;0.43;;;;;;;;;;4976775;28;20195;-66
2023/03/26 18:22:53;;;;;;;0.40;0.40;;;;;;;;;;4976056;28;20308;-67
2023/03/26 18:25:24;;;;;;;0.40;0.40;;;;;;;;;;4976158;28;20270;-65
2023/03/26 18:27:51;;;;;;;0.50;0.50;;;;;;;;;;4976055;28;20195;-66
2023/03/26 18:30:19;;;;;;;0.60;0.60;;;;;;;;;;4975636;28;20540;-66
2023/03/26 18:32:49;;;;;;;0.57;0.57;;;;;;;;;;4975992;28;20188;-65
2023/03/26 18:35:19;;;;;;;0.82;0.50;;;;;;;;;;4975676;28;20571;-67
2023/03/26 18:37:47;;;;;;;1.08;0.40;;;;;;;;;;4975715;28;20203;-66
2023/03/26 18:40:17;;;;;;;0.40;0.40;;;;;;;;;;4975711;28;20219;-67
2023/03/26 18:42:47;;;;;;;0.47;0.47;;;;;;;;;;4975511;28;20659;-66
2023/03/26 18:45:21;;;;;;;0.47;0.47;;;;;;;;;;4975883;28;20226;-66
2023/03/26 18:47:50;;;;;;;0.40;0.40;;;;;;;;;;4975612;28;20215;-66
2023/03/26 18:50:18;;;;;;;0.40;0.40;;;;;;;;;;4975371;28;20218;-66
2023/03/26 18:52:45;;;;;;;0.40;0.40;;;;;;;;;;4975543;28;20207;-66
2023/03/26 18:55:14;;;;;;;0.40;0.40;;;;;;;;;;4975462;28;20207;-66
2023/03/26 18:57:42;;;;;;;1.38;0.40;;;;;;;;;;4975396;28;20206;-66
2023/03/26 19:00:18;;;;;;;0.50;0.50;;;;;;;;;;4975262;28;20219;-66
2023/03/26 19:02:46;;;;;;;0.60;0.60;;;;;;;;;;4975487;28;20191;-66
2023/03/26 19:05:15;;;;;;;1.95;0.63;;;;;;;;;;4975308;28;20655;-66
2023/03/26 19:07:42;;;;;;;1.83;0.60;;;;;;;;;;4975367;28;20207;-66
2023/03/26 19:10:14;;;;;;;0.50;0.50;;;;;;;;;;4975272;28;20258;-66
2023/03/26 19:12:41;;;;;;;0.40;0.40;;;;;;;;;;4974708;28;20231;-66
2023/03/26 19:15:10;;;;;;;0.40;0.40;;;;;;;;;;4975131;28;20215;-67
2023/03/26 19:17:40;;;;;;;0.38;0.38;;;;;;;;;;4975420;28;20211;-66
2023/03/26 19:20:13;;;;;;;0.45;0.45;;;;;;;;;;4975922;28;20274;-67
2023/03/26 19:22:42;;;;;;;0.50;0.50;;;;;;;;;;4975167;28;20199;-67
2023/03/26 19:25:13;;;;;;;0.38;0.38;;;;;;;;;;4975502;28;20569;-67
2023/03/26 19:27:40;;;;;;;0.40;0.40;;;;;;;;;;4975074;28;20192;-67
2023/03/26 19:30:08;;;;;;;0.40;0.40;;;;;;;;;;4974914;28;20226;-67
2023/03/26 19:32:35;;;;;;;0.50;0.50;;;;;;;;;;4975282;28;20206;-67
2023/03/26 19:35:04;;;;;;;0.40;0.40;;;;;;;;;;4975212;28;20199;-65
2023/03/26 19:37:32;;;;;;;0.40;0.40;;;;;;;;;;4975012;28;20217;-66
2023/03/26 19:40:06;;;;;;;0.55;0.55;;;;;;;;;;4974748;28;20230;-67
2023/03/26 19:42:33;;;;;;;0.50;0.50;;;;;;;;;;4974610;28;20212;-66
2023/03/26 19:45:01;;;;;;;0.43;0.43;;;;;;;;;;4974609;28;20671;-67
2023/03/26 19:47:32;;;;;;;0.40;0.40;;;;;;;;;;4974876;28;20235;-68
2023/03/26 19:50:00;;;;;;;0.40;0.40;;;;;;;;;;4974906;28;20223;-67
2023/03/26 19:52:33;;;;;;;0.40;0.40;;;;;;;;;;4975048;28;20211;-66
2023/03/26 19:55:02;;;;;;;0.60;0.60;;;;;;;;;;4974818;28;20605;-66
2023/03/26 19:57:29;;;;;;;0.47;0.47;;;;;;;;;;4974883;28;20262;-66
2023/03/26 19:59:57;;;;;;;1.73;0.50;;;;;;;;;;4978255;28;20223;-66
2023/03/26 20:02:24;;;;;;;0.63;0.55;;;;;;;;;;4981444;28;20206;-66
2023/03/26 20:04:51;;;;;;;0.50;0.50;;;;;;;;;;4978409;28;20746;-66
2023/03/26 20:07:20;;;;;;;0.80;0.52;;;;;;;;;;4975085;28;20206;-66
2023/03/26 20:09:49;;;;;;;0.40;0.40;;;;;;;;;;4974823;28;20219;-66
2023/03/26 20:12:16;;;;;;;0.50;0.50;;;;;;;;;;4974492;28;20586;-66
2023/03/26 20:14:44;;;;;;;0.50;0.50;;;;;;;;;;4974375;28;20210;-66
2023/03/26 20:17:14;;;;;;;0.40;0.40;;;;;;;;;;4974518;28;20250;-66
2023/03/26 20:19:42;;;;;;;0.40;0.40;;;;;;;;;;4974475;28;20259;-65
2023/03/26 20:22:12;;;;;;;0.50;0.50;;;;;;;;;;4974540;28;20296;-67
2023/03/26 20:24:40;;;;;;;0.30;0.30;;;;;;;;;;4975584;28;20210;-66
2023/03/26 20:27:08;;;;;;;0.40;0.40;;;;;;;;;;4978155;28;20203;-66
2023/03/26 20:29:36;;;;;;;0.40;0.40;;;;;;;;;;4978381;28;20247;-66
2023/03/26 20:32:05;;;;;;;0.40;0.40;;;;;;;;;;4978104;28;20667;-65
2023/03/26 20:34:32;;;;;;;0.50;0.50;;;;;;;;;;4977984;28;20215;-66
2023/03/26 20:36:59;;;;;;;0.47;0.47;;;;;;;;;;4978024;28;20204;-66
2023/03/26 20:39:27;;;;;;;0.47;0.47;;;;;;;;;;4977860;28;20626;-66
2023/03/26 20:41:55;;;;;;;0.40;0.40;;;;;;;;;;4977652;28;20211;-66
2023/03/26 20:44:25;;;;;;;0.50;0.50;;;;;;;;;;4977559;28;20687;-66
2023/03/26 20:46:52;;;;;;;0.47;0.47;;;;;;;;;;4977898;28;20195;-66
2023/03/26 20:49:20;;;;;;;0.40;0.40;;;;;;;;;;4977755;28;20215;-66
2023/03/26 20:51:48;;;;;;;0.85;0.50;;;;;;;;;;4977553;28;20555;-66
2023/03/26 20:54:21;;;;;;;0.68;0.68;;;;;;;;;;4977936;28;20207;-67
2023/03/26 20:56:48;;;;;;;0.63;0.60;;;;;;;;;;4977882;28;20553;-66
2023/03/26 20:59:18;;;;;;;0.77;0.77;;;;;;;;;;4977152;28;20717;-66
2023/03/26 21:01:47;;;;;;;0.98;0.70;;;;;;;;;;4977475;28;20314;-66
2023/03/26 21:04:14;;;;;;;0.60;0.60;;;;;;;;;;4977506;28;20628;-65
2023/03/26 21:06:42;;;;;;;1.58;0.60;;;;;;;;;;4977210;28;20648;-67
2023/03/26 21:09:13;;;;;;;0.70;0.70;;;;;;;;;;4977417;28;20234;-66
2023/03/26 21:11:46;;;;;;;0.60;0.60;;;;;;;;;;4977543;28;20227;-66
2023/03/26 21:14:17;;;;;;;1.13;0.70;;;;;;;;;;4977140;28;20188;-67
2023/03/26 21:16:44;;;;;;;0.60;0.60;;;;;;;;;;4977084;28;20662;-66
2023/03/26 21:19:13;;;;;;;1.65;0.70;;;;;;;;;;4977095;28;20267;-66
2023/03/26 21:21:47;;;;;;;0.65;0.63;;;;;;;;;;4977238;28;20207;-66
2023/03/26 21:24:18;;;;;;;0.60;0.60;;;;;;;;;;4977297;28;20206;-66
2023/03/26 21:26:47;;;;;;;0.85;0.85;;;;;;;;;;4977108;28;20195;-66
2023/03/26 21:29:15;;;;;;;0.70;0.70;;;;;;;;;;4976776;28;20223;-66
2023/03/26 21:31:42;;;;;;;1.13;0.70;;;;;;;;;;4977149;28;20302;-66
2023/03/26 21:34:12;;;;;;;0.63;0.63;;;;;;;;;;4977177;28;20203;-66
2023/03/26 21:36:40;;;;;;;0.75;0.75;;;;;;;;;;4976773;28;20239;-66
2023/03/26 21:39:08;;;;;;;1.02;0.85;;;;;;;;;;4976475;28;20227;-67
2023/03/26 21:41:40;;;;;;;0.70;0.70;;;;;;;;;;4976617;28;20222;-66
2023/03/26 21:44:07;;;;;;;0.73;0.73;;;;;;;;;;4976611;28;20628;-66
2023/03/26 21:46:35;;;;;;;0.80;0.80;;;;;;;;;;4976885;28;20231;-66
2023/03/26 21:49:02;;;;;;;0.88;0.82;;;;;;;;;;4976692;28;20307;-66
